Pagrindinis puslapis
METAR-TAF:

METAR-TAF

Oro uostai :

Al Bahah, Saudo Arabija

platuma: 20-18N, ilguma: 041-38E, Aukštis: 1652 m

Dabartinis oras

Ataskaita buvo paskelbta 32 minutes, ne 23:00 UTC
Ramus vėjas
Temperatūra 22°C
Drėgmė 38%
Slėgis 1020 hPa
Matomumas 10 km arba daugiau
Mažai debesys ne aukštis 3000 ft

METAR: OEBA 072300Z 00000KT 9999 FEW030 22/07 Q1020 NOSIG

Laikas: 02:32 (23:32 UTC)

Prognozė

Ataskaita buvo paskelbta 12 valandos ir 32 minutes, ne 11:00 UTC
Prognozė galioja nuo 07 metu 12 UTC su 08 metu 18 UTC
Vėjas 14 kt iš Vakarų/Pietvakarių
Matomumas 10 km arba daugiau
Išsisklaidę debesys ne aukštis 3000 ft
Laikinai
nuo 07 metu 12 UTC su 07 metu 18 UTC
Matomumas: 6000 m
Mažai debesys ne aukštis 2500 ft, Liūtiniai kamuoliniai debesys.
perkūnija, lietus
Tapsmas
nuo 07 metu 18 UTC su 07 metu 20 UTC
Vėjas 3 kt nuo kintamojo kryptimis
Tapsmas
nuo 08 metu 06 UTC su 08 metu 08 UTC
Vėjas 8 kt iš Pietryčių

TAF: OEBA 071100Z 0712/0818 24014KT 9999 SCT030 TEMPO 0712/0718 6000 TSRA FEW025CB BECMG 0718/0720 VRB03KT BECMG 0806/0808 14008KT

Orai ataskaitas ir orų prognozės (METAR, TAF).

turimą stotys yra geltonos ir raudonos taškus žemėlapyje.

Perkelti pele per norėdami pamatyti stoties vardą.

Tada spustelėkite, norėdami matyti oro stebėjimo ir prognozės.

Norėdami pakeisti žemėlapį: spustelėkite ant žalios mygtukų su juodo kryžiaus žemyn,; žalią mygtuką su brūkšneliu, jei norite nutolinti; arba žalių rodyklių gretimoms žemėlapius.


METAR-TAF: